createdAt,value
2023-01-23T00:01:43.393Z,21.27
2023-01-23T00:04:15.353Z,21.17
2023-01-23T00:06:44.805Z,20.53
2023-01-23T00:09:13.662Z,20.97
2023-01-23T00:11:42.533Z,20.27
2023-01-23T00:14:12.192Z,21.47
2023-01-23T00:16:41.097Z,22.07
2023-01-23T00:19:11.883Z,21.07
2023-01-23T00:21:42.829Z,21.50
2023-01-23T00:24:13.780Z,22.07
2023-01-23T00:26:42.646Z,21.17
2023-01-23T00:29:11.510Z,20.93
2023-01-23T00:31:40.865Z,21.97
2023-01-23T00:34:14.850Z,21.63
2023-01-23T00:36:46.199Z,22.23
2023-01-23T00:39:18.403Z,22.30
2023-01-23T00:41:48.486Z,21.90
2023-01-23T00:44:18.388Z,22.60
2023-01-23T00:46:47.766Z,21.80
2023-01-23T00:49:17.926Z,20.40
2023-01-23T00:51:48.244Z,21.43
2023-01-23T00:54:17.769Z,21.60
2023-01-23T00:56:48.108Z,21.47
2023-01-23T00:59:17.587Z,21.10
2023-01-23T01:01:47.029Z,22.10
2023-01-23T01:04:16.129Z,22.13
2023-01-23T01:06:45.173Z,22.67
2023-01-23T01:09:15.809Z,22.53
2023-01-23T01:11:47.149Z,23.07
2023-01-23T01:14:17.793Z,22.50
2023-01-23T01:16:49.535Z,22.53
2023-01-23T01:19:19.314Z,24.30
2023-01-23T01:21:49.319Z,23.37
2023-01-23T01:24:20.774Z,23.53
2023-01-23T01:26:50.185Z,22.00
2023-01-23T01:29:19.277Z,23.90
2023-01-23T01:31:48.423Z,24.50
2023-01-23T01:34:17.320Z,25.17
2023-01-23T01:36:46.428Z,24.93
2023-01-23T01:39:15.527Z,24.53
2023-01-23T01:41:46.236Z,23.60
2023-01-23T01:44:18.684Z,24.40
2023-01-23T01:46:49.257Z,25.20
2023-01-23T01:49:21.597Z,22.70
2023-01-23T01:51:55.853Z,25.03
2023-01-23T01:54:29.414Z,23.90
2023-01-23T01:57:03.461Z,24.93
2023-01-23T01:59:35.684Z,24.03
2023-01-23T02:02:11.200Z,23.70
2023-01-23T02:04:43.988Z,25.00
2023-01-23T02:07:22.964Z,25.13
2023-01-23T02:09:53.318Z,26.10
2023-01-23T02:12:24.346Z,25.77
2023-01-23T02:14:53.561Z,26.07
2023-01-23T02:17:22.576Z,25.63
2023-01-23T02:20:02.798Z,24.87
2023-01-23T02:22:39.956Z,25.60
2023-01-23T02:25:17.947Z,25.60
2023-01-23T02:27:48.875Z,24.07
2023-01-23T02:30:19.147Z,25.60
2023-01-23T02:32:48.314Z,23.83
2023-01-23T02:35:26.403Z,24.33
2023-01-23T02:38:01.808Z,24.83
2023-01-23T02:40:36.525Z,24.50
2023-01-23T02:43:12.331Z,25.43
2023-01-23T02:45:46.039Z,24.10
2023-01-23T02:48:17.240Z,23.83
2023-01-23T02:50:46.490Z,25.20
2023-01-23T02:53:15.574Z,26.23
2023-01-23T02:55:45.200Z,23.70
2023-01-23T02:58:34.135Z,24.03
2023-01-23T03:01:03.887Z,24.93
2023-01-23T03:03:32.975Z,25.07
2023-01-23T03:06:04.120Z,25.17
2023-01-23T03:08:36.633Z,25.50
2023-01-23T03:11:06.338Z,24.10
2023-01-23T03:13:36.602Z,24.70
2023-01-23T03:16:08.047Z,25.00
2023-01-23T03:18:52.785Z,23.67
2023-01-23T03:21:23.398Z,24.60
2023-01-23T03:23:52.487Z,23.63
2023-01-23T03:26:21.549Z,24.67
2023-01-23T03:29:09.540Z,23.37
2023-01-23T03:31:38.648Z,24.97
2023-01-23T03:34:07.878Z,23.63
2023-01-23T03:36:37.490Z,24.67
2023-01-23T03:39:24.619Z,24.30
2023-01-23T03:41:54.699Z,22.43
2023-01-23T03:44:26.785Z,23.23
2023-01-23T03:46:55.966Z,23.57
2023-01-23T03:49:25.799Z,23.10
2023-01-23T03:52:00.383Z,23.37
2023-01-23T03:54:31.313Z,23.50
2023-01-23T03:57:00.395Z,22.73
2023-01-23T03:59:56.797Z,22.13
2023-01-23T04:02:30.518Z,22.70
2023-01-23T04:04:59.449Z,22.50
2023-01-23T04:07:28.547Z,23.77
2023-01-23T04:09:57.271Z,22.77
2023-01-23T04:12:27.585Z,22.57
2023-01-23T04:14:58.228Z,22.63
2023-01-23T04:17:27.474Z,24.20
2023-01-23T04:19:56.457Z,24.20
2023-01-23T04:22:25.566Z,23.93
2023-01-23T04:24:54.723Z,22.60
2023-01-23T04:27:23.955Z,23.13
2023-01-23T04:29:53.769Z,21.83
2023-01-23T04:32:24.402Z,21.93
2023-01-23T04:34:53.632Z,21.57
2023-01-23T04:37:22.723Z,21.37
2023-01-23T04:39:52.568Z,22.30
2023-01-23T04:42:21.527Z,21.60
2023-01-23T04:45:05.368Z,21.93
2023-01-23T04:48:01.839Z,21.17
2023-01-23T04:50:31.034Z,22.30
2023-01-23T04:52:59.884Z,22.57
2023-01-23T04:55:29.411Z,23.53
2023-01-23T04:58:00.106Z,22.47
2023-01-23T05:00:33.081Z,21.77
2023-01-23T05:03:04.999Z,23.43
2023-01-23T05:05:34.596Z,21.67
2023-01-23T05:08:03.867Z,21.43
2023-01-23T05:10:32.907Z,21.13
2023-01-23T05:13:09.639Z,20.37
2023-01-23T05:15:38.909Z,20.60
2023-01-23T05:18:09.680Z,20.90
2023-01-23T05:20:38.921Z,19.90
2023-01-23T05:23:07.941Z,21.57
2023-01-23T05:25:46.038Z,21.03
2023-01-23T05:28:15.176Z,21.03
2023-01-23T05:30:49.912Z,19.93
2023-01-23T05:33:35.668Z,20.33
2023-01-23T05:36:04.980Z,21.77
2023-01-23T05:38:34.524Z,20.90
2023-01-23T05:41:05.738Z,21.20
2023-01-23T05:43:53.476Z,21.63
2023-01-23T05:46:46.971Z,20.93
2023-01-23T05:49:17.435Z,20.13
2023-01-23T05:51:49.687Z,22.33
2023-01-23T05:54:18.593Z,21.90
2023-01-23T05:56:48.408Z,21.63
2023-01-23T05:59:35.903Z,21.60
2023-01-23T06:02:25.163Z,21.90
2023-01-23T06:05:04.464Z,21.47
2023-01-23T06:07:59.536Z,21.77
2023-01-23T06:10:28.412Z,22.03
2023-01-23T06:12:58.658Z,22.03
2023-01-23T06:15:27.749Z,23.53
2023-01-23T06:17:57.942Z,22.47
2023-01-23T06:20:29.297Z,21.23
2023-01-23T06:22:58.815Z,22.77
2023-01-23T06:25:28.954Z,23.83
2023-01-23T06:28:00.622Z,23.83
2023-01-23T06:30:32.565Z,23.73
2023-01-23T06:33:01.958Z,23.23
2023-01-23T06:35:40.628Z,22.77
2023-01-23T06:38:10.648Z,22.83
2023-01-23T06:40:41.287Z,23.17
2023-01-23T06:43:26.524Z,24.07
2023-01-23T06:45:56.327Z,23.83
2023-01-23T06:48:26.123Z,23.27
2023-01-23T06:51:00.811Z,23.87
2023-01-23T06:53:30.520Z,24.20
2023-01-23T06:56:02.003Z,23.43
2023-01-23T06:58:34.615Z,25.23
2023-01-23T07:01:10.581Z,24.90
2023-01-23T07:04:15.296Z,24.90
2023-01-23T07:06:47.652Z,23.80
2023-01-23T07:09:18.409Z,25.53
2023-01-23T07:11:54.448Z,25.77
2023-01-23T07:14:24.152Z,25.93
2023-01-23T07:16:56.046Z,27.13
2023-01-23T07:19:26.670Z,25.63
2023-01-23T07:21:58.459Z,26.23
2023-01-23T07:24:28.550Z,28.37
2023-01-23T07:26:57.456Z,26.03
2023-01-23T07:29:26.396Z,28.03
2023-01-23T07:31:55.641Z,27.23
2023-01-23T07:34:24.660Z,26.87
2023-01-23T07:36:53.685Z,28.87
2023-01-23T07:39:24.633Z,29.33
2023-01-23T07:41:53.684Z,29.73
2023-01-23T07:44:23.664Z,27.87
2023-01-23T07:46:52.840Z,30.50
2023-01-23T07:49:22.098Z,29.07
2023-01-23T07:51:51.100Z,29.53
2023-01-23T07:54:20.386Z,28.40
2023-01-23T07:56:52.518Z,27.13
2023-01-23T07:59:21.821Z,28.67
2023-01-23T08:01:52.576Z,27.40
2023-01-23T08:04:22.175Z,24.53
2023-01-23T08:06:51.328Z,26.63
2023-01-23T08:09:20.135Z,27.33
2023-01-23T08:11:49.222Z,27.10
2023-01-23T08:14:19.666Z,27.73
2023-01-23T08:16:50.858Z,27.63
2023-01-23T08:19:20.606Z,27.30
2023-01-23T08:21:49.616Z,27.10
2023-01-23T08:24:18.799Z,28.37
2023-01-23T08:26:47.842Z,27.03
2023-01-23T08:29:18.540Z,27.57
2023-01-23T08:31:47.804Z,27.17
2023-01-23T08:34:16.936Z,26.77
2023-01-23T08:36:45.915Z,27.13
2023-01-23T08:39:14.989Z,27.53
2023-01-23T08:41:43.999Z,26.73
2023-01-23T08:44:12.924Z,26.87
2023-01-23T08:46:44.959Z,24.83
2023-01-23T08:49:14.032Z,26.37
2023-01-23T08:51:42.934Z,25.00
2023-01-23T08:54:11.661Z,25.23
2023-01-23T08:56:41.305Z,25.70
2023-01-23T08:59:10.461Z,24.50
2023-01-23T09:01:39.515Z,23.73
2023-01-23T09:04:10.229Z,24.40
2023-01-23T09:06:39.762Z,23.00
2023-01-23T09:09:08.803Z,23.50
2023-01-23T09:11:37.890Z,23.03
2023-01-23T09:14:06.631Z,24.33
2023-01-23T09:16:35.890Z,23.33
2023-01-23T09:19:04.819Z,24.77
2023-01-23T09:21:35.388Z,27.60
2023-01-23T09:24:04.360Z,26.47
2023-01-23T09:26:33.491Z,26.83
2023-01-23T09:29:02.956Z,28.10
2023-01-23T09:31:32.271Z,27.73
2023-01-23T09:34:03.368Z,26.77
2023-01-23T09:36:42.336Z,27.93
2023-01-23T09:39:14.110Z,27.80
2023-01-23T09:41:45.278Z,28.27
2023-01-23T09:44:20.395Z,26.73
2023-01-23T09:46:53.607Z,28.53
2023-01-23T09:49:28.488Z,28.30
2023-01-23T09:52:02.371Z,25.87
2023-01-23T09:54:43.231Z,25.80
2023-01-23T09:57:18.609Z,24.00
2023-01-23T10:00:00.619Z,25.33
2023-01-23T10:02:30.477Z,24.43
2023-01-23T10:05:02.652Z,25.53
2023-01-23T10:07:48.422Z,25.50
2023-01-23T10:10:47.335Z,27.73
2023-01-23T10:13:19.495Z,26.97
2023-01-23T10:16:07.171Z,27.97
2023-01-23T10:18:42.635Z,27.77
2023-01-23T10:21:22.434Z,25.40
2023-01-23T10:24:03.037Z,26.30
2023-01-23T10:26:40.208Z,25.87
2023-01-23T10:29:22.442Z,26.27
2023-01-23T10:31:55.836Z,25.97
2023-01-23T10:34:34.483Z,26.67
2023-01-23T10:37:16.569Z,25.80
2023-01-23T10:39:51.391Z,25.97
2023-01-23T10:42:24.082Z,25.30
2023-01-23T10:44:53.185Z,26.43
2023-01-23T10:47:31.993Z,28.10
2023-01-23T10:50:02.058Z,27.90
2023-01-23T10:52:34.928Z,28.00
2023-01-23T10:55:06.243Z,26.67
2023-01-23T10:57:46.715Z,28.73
2023-01-23T11:00:23.752Z,27.00
2023-01-23T11:02:52.728Z,29.53
2023-01-23T11:05:51.548Z,29.10
2023-01-23T11:08:27.410Z,29.70
2023-01-23T11:11:07.131Z,28.17
2023-01-23T11:13:37.811Z,28.80
2023-01-23T11:16:07.209Z,29.13
2023-01-23T11:18:42.666Z,29.03
2023-01-23T11:21:22.610Z,30.10
2023-01-23T11:24:09.122Z,29.80
2023-01-23T11:26:39.770Z,30.27
2023-01-23T11:29:24.756Z,28.80
2023-01-23T11:31:57.470Z,30.07
2023-01-23T11:34:30.798Z,30.93
2023-01-23T11:37:09.306Z,29.57
2023-01-23T11:39:45.727Z,31.53
2023-01-23T11:42:16.024Z,31.70
2023-01-23T11:44:47.363Z,31.87
2023-01-23T11:47:55.321Z,31.03
2023-01-23T11:50:43.705Z,31.70
2023-01-23T11:53:33.637Z,30.73
2023-01-23T11:56:30.909Z,30.70
2023-01-23T11:59:36.835Z,32.30
2023-01-23T12:02:30.456Z,32.93
2023-01-23T12:05:16.887Z,31.77
2023-01-23T12:07:56.723Z,31.03
2023-01-23T12:10:30.291Z,33.63
2023-01-23T12:13:16.714Z,34.10
2023-01-23T12:15:51.203Z,35.03
2023-01-23T12:18:35.625Z,36.13
2023-01-23T12:21:14.170Z,35.23
2023-01-23T12:23:58.108Z,36.90
2023-01-23T12:26:29.675Z,36.50
2023-01-23T12:29:28.411Z,35.03
2023-01-23T12:32:08.490Z,35.00
2023-01-23T12:37:51.284Z,35.03
2023-01-23T12:40:26.398Z,35.07
2023-01-23T12:43:01.256Z,34.63
2023-01-23T12:45:32.260Z,35.97
2023-01-23T12:48:07.969Z,33.63
2023-01-23T12:50:43.736Z,34.17
2023-01-23T12:53:15.811Z,32.10
2023-01-23T12:55:58.724Z,31.17
2023-01-23T12:58:31.586Z,30.60
2023-01-23T13:01:11.707Z,30.70
2023-01-23T13:04:05.363Z,29.67
2023-01-23T13:06:57.387Z,30.30
2023-01-23T13:09:36.371Z,30.10
2023-01-23T13:12:22.255Z,29.77
2023-01-23T13:15:13.372Z,30.33
2023-01-23T13:17:46.565Z,30.20
2023-01-23T13:20:42.375Z,31.07
2023-01-23T13:23:30.347Z,32.60
2023-01-23T13:26:34.106Z,33.70
2023-01-23T13:29:04.817Z,31.97
2023-01-23T13:31:45.282Z,32.70
2023-01-23T13:34:37.638Z,32.13
2023-01-23T13:37:51.449Z,31.63
2023-01-23T13:40:23.202Z,32.00
2023-01-23T13:42:54.075Z,31.23
2023-01-23T13:45:33.015Z,31.27
2023-01-23T14:20:39.739Z,28.97
2023-01-23T14:23:19.463Z,30.87
2023-01-23T14:25:49.606Z,31.80
2023-01-23T14:28:20.351Z,29.70
2023-01-23T14:30:57.960Z,31.27
2023-01-23T14:33:29.710Z,30.20
2023-01-23T14:35:58.931Z,31.73
2023-01-23T14:38:33.850Z,32.30
2023-01-23T14:41:06.729Z,31.50
2023-01-23T14:43:37.976Z,29.13
2023-01-23T14:46:13.872Z,33.70
2023-01-23T14:48:47.827Z,34.60
2023-01-23T14:51:21.472Z,33.33
2023-01-23T14:53:56.713Z,34.30
2023-01-23T14:56:29.139Z,34.87
2023-01-23T14:59:00.786Z,34.13
2023-01-23T15:01:30.455Z,35.40
2023-01-23T15:04:04.582Z,37.20
2023-01-23T15:06:35.793Z,36.13
2023-01-23T15:09:17.351Z,37.03
2023-01-23T15:11:46.953Z,36.87
2023-01-23T15:14:26.110Z,37.30
2023-01-23T15:17:02.072Z,37.73
2023-01-23T15:19:33.860Z,36.07
2023-01-23T15:22:19.106Z,36.53
2023-01-23T15:24:48.315Z,36.83
2023-01-23T15:27:29.060Z,37.97
2023-01-23T15:30:38.283Z,37.40
2023-01-23T15:33:25.422Z,37.10
2023-01-23T15:36:06.008Z,37.77
2023-01-23T15:38:35.272Z,38.40
2023-01-23T15:41:10.984Z,38.83
2023-01-23T15:43:39.911Z,40.63
2023-01-23T15:46:11.389Z,41.80
2023-01-23T15:48:40.565Z,43.27
2023-01-23T15:51:13.622Z,41.13
2023-01-23T15:53:42.790Z,42.67
2023-01-23T15:56:29.013Z,42.90
2023-01-23T15:58:59.245Z,47.83
2023-01-23T16:01:28.403Z,46.13
2023-01-23T16:03:57.534Z,43.10
2023-01-23T16:06:28.177Z,43.43
2023-01-23T16:09:05.264Z,40.63
2023-01-23T16:11:38.684Z,42.23
2023-01-23T16:14:07.887Z,43.90
2023-01-23T16:16:37.128Z,45.27
2023-01-23T16:19:06.267Z,41.40
2023-01-23T16:21:36.740Z,41.03
2023-01-23T16:24:07.381Z,43.63
2023-01-23T16:26:36.779Z,42.43
2023-01-23T16:29:13.774Z,44.23
2023-01-23T16:31:43.125Z,44.97
2023-01-23T16:34:12.220Z,44.37
2023-01-23T16:36:43.578Z,44.90
2023-01-23T16:39:18.093Z,43.33
2023-01-23T16:41:47.674Z,43.47
2023-01-23T16:44:18.906Z,43.17
2023-01-23T16:46:48.444Z,42.13
2023-01-23T16:49:17.806Z,42.17
2023-01-23T16:51:57.642Z,43.23
2023-01-23T16:54:27.604Z,40.50
2023-01-23T16:56:58.362Z,41.43
2023-01-23T16:59:34.624Z,40.20
2023-01-23T17:02:13.542Z,39.67
2023-01-23T17:04:42.671Z,41.13
2023-01-23T17:07:15.789Z,40.13
2023-01-23T17:09:45.187Z,41.10
2023-01-23T17:12:17.381Z,41.37
2023-01-23T17:14:47.195Z,41.57
2023-01-23T17:17:20.771Z,42.53
2023-01-23T17:19:50.040Z,42.70
2023-01-23T17:22:24.544Z,41.00
2023-01-23T17:24:53.915Z,40.57
2023-01-23T17:27:23.216Z,41.90
2023-01-23T17:29:52.327Z,43.63
2023-01-23T17:32:29.544Z,41.00
2023-01-23T17:35:01.809Z,41.37
2023-01-23T17:37:35.892Z,42.03
2023-01-23T17:40:05.555Z,42.20
2023-01-23T17:42:34.368Z,42.57
2023-01-23T17:45:04.850Z,40.30
2023-01-23T17:47:35.193Z,42.40
2023-01-23T17:50:04.751Z,42.00
2023-01-23T17:52:35.444Z,42.37
2023-01-23T17:55:05.487Z,42.90
2023-01-23T17:57:34.712Z,42.27
2023-01-23T18:00:04.861Z,42.93
2023-01-23T18:02:39.614Z,42.33
2023-01-23T18:05:11.888Z,45.03
2023-01-23T18:07:53.018Z,45.17
2023-01-23T18:10:25.628Z,45.13
2023-01-23T18:13:04.390Z,45.27
2023-01-23T18:15:38.874Z,43.77
2023-01-23T18:18:22.216Z,45.03
2023-01-23T18:20:54.826Z,42.03
2023-01-23T18:23:27.220Z,43.83
2023-01-23T18:26:07.527Z,43.27
2023-01-23T18:28:46.510Z,42.30
2023-01-23T18:31:22.062Z,42.67
2023-01-23T18:34:05.094Z,41.23
2023-01-23T18:36:49.690Z,42.23
2023-01-23T18:39:46.475Z,41.00
2023-01-23T18:42:20.354Z,41.57
2023-01-23T18:44:56.409Z,42.27
2023-01-23T18:47:26.391Z,41.40
2023-01-23T18:49:56.495Z,45.27
2023-01-23T18:52:37.112Z,44.77
2023-01-23T18:55:17.175Z,45.33
2023-01-23T18:58:10.950Z,47.60
2023-01-23T19:00:47.006Z,45.20
2023-01-23T19:03:19.510Z,45.27
2023-01-23T19:05:49.851Z,47.10
2023-01-23T19:08:28.312Z,44.10
2023-01-23T19:11:06.506Z,42.20
2023-01-23T19:13:45.818Z,43.87
2023-01-23T19:16:23.744Z,44.70
2023-01-23T19:19:14.659Z,43.60
2023-01-23T19:21:47.892Z,43.50
2023-01-23T19:24:21.585Z,46.30
2023-01-23T19:26:54.988Z,42.80
2023-01-23T19:29:25.760Z,44.83
2023-01-23T19:32:05.011Z,44.80
2023-01-23T19:34:36.136Z,44.97
2023-01-23T19:37:06.081Z,45.93
2023-01-23T19:39:36.782Z,45.33
2023-01-23T19:42:14.718Z,47.57
2023-01-23T19:44:45.952Z,46.30
2023-01-23T19:47:18.102Z,46.00
2023-01-23T19:49:48.467Z,47.57
2023-01-23T19:52:24.299Z,47.60
2023-01-23T19:54:54.724Z,47.20
2023-01-23T19:57:29.566Z,47.63
2023-01-23T20:00:02.290Z,47.07
2023-01-23T20:02:41.955Z,45.97
2023-01-23T20:05:13.606Z,47.17
2023-01-23T20:07:44.001Z,46.57
2023-01-23T20:10:14.892Z,47.57
2023-01-23T20:12:51.878Z,46.43
2023-01-23T20:15:24.459Z,46.13
2023-01-23T20:17:55.508Z,47.00
2023-01-23T20:20:25.990Z,47.63
2023-01-23T20:22:56.287Z,46.33
2023-01-23T20:25:26.933Z,45.87
2023-01-23T20:27:59.140Z,48.27
2023-01-23T20:30:31.500Z,44.67
2023-01-23T20:33:05.437Z,47.47
2023-01-23T20:35:38.469Z,47.17
2023-01-23T20:38:09.826Z,46.13
2023-01-23T20:40:40.427Z,49.17
2023-01-23T20:43:12.627Z,47.93
2023-01-23T20:45:48.889Z,47.33
2023-01-23T20:48:20.039Z,46.17
2023-01-23T20:50:56.234Z,47.03
2023-01-23T20:53:31.293Z,43.10
2023-01-23T20:56:02.749Z,42.87
2023-01-23T20:58:52.114Z,45.57
2023-01-23T21:01:24.223Z,45.40
2023-01-23T21:03:54.705Z,44.43
2023-01-23T21:06:25.108Z,43.83
2023-01-23T21:08:57.479Z,46.07
2023-01-23T21:11:28.667Z,43.23
2023-01-23T21:14:01.205Z,43.57
2023-01-23T21:16:31.750Z,42.93
2023-01-23T21:19:02.848Z,42.60
2023-01-23T21:21:33.897Z,42.63
2023-01-23T21:24:03.959Z,43.33
2023-01-23T21:26:35.091Z,43.40
2023-01-23T21:29:08.351Z,43.37
2023-01-23T21:31:39.428Z,42.83
2023-01-23T21:34:10.805Z,45.00
2023-01-23T21:36:41.860Z,44.67
2023-01-23T21:39:14.599Z,42.93
2023-01-23T21:41:43.947Z,45.00
2023-01-23T21:44:15.321Z,43.63
2023-01-23T21:46:46.625Z,45.23
2023-01-23T21:49:15.738Z,45.80
2023-01-23T21:51:45.198Z,44.80
2023-01-23T21:54:14.611Z,45.43
2023-01-23T21:56:43.632Z,44.60
2023-01-23T21:59:14.705Z,45.33
2023-01-23T22:01:42.955Z,46.23
2023-01-23T22:04:13.573Z,46.37
2023-01-23T22:06:44.249Z,47.33
2023-01-23T22:09:17.379Z,46.43
2023-01-23T22:11:46.622Z,46.17
2023-01-23T22:14:17.995Z,44.53
2023-01-23T22:16:49.441Z,46.13
2023-01-23T22:19:24.232Z,45.33
2023-01-23T22:21:54.752Z,44.73
2023-01-23T22:24:23.797Z,44.53
2023-01-23T22:26:53.129Z,46.27
2023-01-23T22:29:24.207Z,44.33
2023-01-23T22:31:53.523Z,45.03
2023-01-23T22:34:22.332Z,45.07
2023-01-23T22:36:51.260Z,47.00
2023-01-23T22:39:20.629Z,45.93
2023-01-23T22:41:50.649Z,48.87
2023-01-23T22:44:19.815Z,46.57
2023-01-23T22:46:51.561Z,46.57
2023-01-23T22:49:20.775Z,46.77
2023-01-23T22:51:51.509Z,47.57
2023-01-23T22:54:20.681Z,48.67
2023-01-23T22:56:49.805Z,47.73
2023-01-23T22:59:18.833Z,47.33
2023-01-23T23:01:49.422Z,48.83
2023-01-23T23:04:18.587Z,47.23
2023-01-23T23:06:47.604Z,50.03
2023-01-23T23:09:16.368Z,47.80
2023-01-23T23:11:47.478Z,48.20
2023-01-23T23:14:16.576Z,47.43
2023-01-23T23:16:46.181Z,47.10
2023-01-23T23:19:16.691Z,46.63
2023-01-23T23:21:45.444Z,48.13
2023-01-23T23:24:15.128Z,46.00
2023-01-23T23:26:44.168Z,47.57
2023-01-23T23:29:13.191Z,45.97
2023-01-23T23:31:42.134Z,47.67
2023-01-23T23:34:10.980Z,47.20
2023-01-23T23:36:41.788Z,47.23
2023-01-23T23:39:10.823Z,48.63
2023-01-23T23:41:39.903Z,46.63
2023-01-23T23:44:09.075Z,45.73
2023-01-23T23:46:37.983Z,47.73
2023-01-23T23:49:07.262Z,47.63
2023-01-23T23:51:36.303Z,46.97
2023-01-23T23:54:07.376Z,44.70
2023-01-23T23:56:36.537Z,46.47
2023-01-23T23:59:05.613Z,47.57
